Flight Track Log - Related Links

Times and Time Zones

All times are in EDT time to prevent confusion due to time zone crossing. See the N1016C flight status page for this flight to view local times or setup timezone preferences in your user account.

Time Position Orientation Groundspeed Altitude Reporting Facility
EDT Latitude Longitude Course Direction KTS MPH feet Rate Location/Type
Sat 03:19:33 PM 36.8994 -86.7197 37° Northeast 170 196 1,900  Level Memphis Center
Sat 03:20:33 PM 36.9339 -86.6869 37° Northeast 176 203 2,000 250 Climbing Memphis Center
Sat 03:21:33 PM 36.9722 -86.6514 37° Northeast 176 203 2,400 450 Climbing Memphis Center
Sat 03:22:33 PM 37.0089 -86.6186 36° Northeast 162 186 2,900 500 Climbing Memphis Center
Sat 03:23:33 PM 37.0433 -86.5858 37° Northeast 156 180 3,400 450 Climbing Memphis Center
Sat 03:24:33 PM 37.0797 -86.5531 36° Northeast 156 180 3,800 471 Climbing Memphis Center
Sat 03:26:44 PM 37.1594 -86.4761 38° Northeast 162 186 4,900 497 Climbing Indianapolis Center
Sat 03:27:46 PM 37.1969 -86.4408 37° Northeast 165 190 5,400 439 Climbing Indianapolis Center
Sat 03:28:47 PM 37.2339 -86.4067 36° Northeast 165 190 5,800 439 Climbing Indianapolis Center
Sat 03:29:49 PM 37.2703 -86.3697 39° Northeast 167 192 6,300 488 Climbing Indianapolis Center
Sat 03:30:50 PM 37.3072 -86.3364 36° Northeast 163 188 6,800 439 Climbing Indianapolis Center
Sat 03:31:52 PM 37.3433 -86.3022 37° Northeast 162 186 7,200 488 Climbing Indianapolis Center
Sat 03:32:53 PM 37.3856 -86.2633 36° Northeast 159 183 7,800 488 Climbing Indianapolis Center
Sat 03:33:55 PM 37.4217 -86.2289 37° Northeast 162 186 8,200 390 Climbing Indianapolis Center
Sat 03:34:56 PM 37.4589 -86.1925 38° Northeast 167 192 8,600 341 Climbing Indianapolis Center
Sat 03:35:58 PM 37.4969 -86.1567 37° Northeast 169 194 8,900 195 Climbing Indianapolis Center
Sat 03:36:59 PM 37.5358 -86.1194 37° Northeast 174 200 9,000 49 Climbing Indianapolis Center
Sat 03:38:00 PM 37.5739 -86.0844 36° Northeast 188 216 9,000  Level Indianapolis Center
Sat 03:39:02 PM 37.6247 -86.0367 37° Northeast 190 219 9,000  Level Indianapolis Center
Sat 03:40:03 PM 37.6658 -85.9961 38° Northeast 188 216 9,000  Level Indianapolis Center
Sat 03:41:05 PM 37.7083 -85.9567 36° Northeast 188 216 9,000  Level Indianapolis Center
Sat 03:42:06 PM 37.7497 -85.9161 38° Northeast 186 214 9,000  Level Indianapolis Center
Sat 03:43:08 PM 37.7911 -85.8761 37° Northeast 188 216 9,000  Level Indianapolis Center
Sat 03:44:09 PM 37.8308 -85.8378 37° Northeast 181 208 9,000  Level Indianapolis Center
Sat 03:45:11 PM 37.8711 -85.7997 37° Northeast 180 207 9,000  Level Indianapolis Center
Sat 03:46:12 PM 37.9128 -85.7594 37° Northeast 187 215 9,000  Level Indianapolis Center
Sat 03:47:14 PM 37.9544 -85.7197 37° Northeast 188 216 9,000  Level Indianapolis Center
Sat 03:48:15 PM 37.9958 -85.6786 38° Northeast 188 216 9,000  Level Indianapolis Center
Sat 03:49:17 PM 38.0461 -85.6308 37° Northeast 189 217 9,000  Level Indianapolis Center
Sat 03:50:18 PM 38.0878 -85.5906 37° Northeast 187 215 9,000  Level Indianapolis Center
Sat 03:51:20 PM 38.1289 -85.5511 37° Northeast 185 213 9,000  Level Indianapolis Center
Sat 03:52:21 PM 38.1708 -85.5117 36° Northeast 185 213 9,000  Level Indianapolis Center
Sat 03:53:22 PM 38.2119 -85.4714 38° Northeast 186 214 9,000  Level Indianapolis Center
Sat 03:54:24 PM 38.2525 -85.4303 39° Northeast 186 214 9,000  Level Indianapolis Center
Sat 03:55:25 PM 38.2939 -85.3906 37° Northeast 185 213 9,000  Level Indianapolis Center
Sat 03:56:27 PM 38.3350 -85.3503 38° Northeast 185 213 9,000  Level Indianapolis Center
Sat 03:57:28 PM 38.3775 -85.3089 37° Northeast 191 220 9,000  Level Indianapolis Center
Sat 03:58:30 PM 38.4181 -85.2689 38° Northeast 186 214 9,000  Level Indianapolis Center
Sat 03:59:31 PM 38.4686 -85.2189 38° Northeast 189 217 9,000  Level Indianapolis Center
Sat 04:00:33 PM 38.5075 -85.1806 38° Northeast 190 219 9,000  Level Indianapolis Center
Sat 04:01:34 PM 38.5483 -85.1419 36° Northeast 184 212 9,000  Level Indianapolis Center
Sat 04:02:36 PM 38.5958 -85.0942 38° Northeast 184 212 9,000  Level Indianapolis Center
Sat 04:03:37 PM 38.6378 -85.0531 37° Northeast 188 216 9,000  Level Indianapolis Center
Sat 04:04:39 PM 38.6764 -85.0153 37° Northeast 183 211 9,000  Level Indianapolis Center
Sat 04:05:40 PM 38.7169 -84.9744 38° Northeast 185 213 9,000  Level Indianapolis Center
Sat 04:06:42 PM 38.7575 -84.9353 37° Northeast 181 208 9,000  Level Indianapolis Center
Sat 04:07:43 PM 38.7969 -84.8953 38° Northeast 180 207 9,000  Level Indianapolis Center
Sat 04:08:45 PM 38.8361 -84.8556 38° Northeast 179 206 9,000  Level Indianapolis Center
Sat 04:09:46 PM 38.8764 -84.8167 37° Northeast 179 206 9,000  Level Indianapolis Center
Sat 04:10:30 PM 38.9167 -84.7833 33° Northeast 179 206 9,000  Level Cincinnati TRACON
Sat 04:11:30 PM 38.9500 -84.7333 49° Northeast 177 204 9,000 -50 Level Cincinnati TRACON
Sat 04:12:30 PM 38.9833 -84.7000 38° Northeast 182 209 8,900 -50 Descending Cincinnati TRACON
Sat 04:13:30 PM 39.0333 -84.6667 27° Northeast 180 207 8,900  Level Cincinnati TRACON
Sat 04:14:30 PM 39.0667 -84.6167 49° Northeast 193 222 8,900 50 Level Cincinnati TRACON
Sat 04:15:30 PM 39.1167 -84.5833 27° Northeast 182 209 9,000 50 Climbing Cincinnati TRACON
Sat 04:16:30 PM 39.1500 -84.5333 49° Northeast 184 212 9,000  Level Cincinnati TRACON
Sat 04:16:57 PM 39.1658 -84.5256 21° North 181 208 9,000 -136 Level Indianapolis Center
Sat 04:17:58 PM 39.2083 -84.4836 37° Northeast 188 216 8,800 -383 Descending Indianapolis Center
Sat 04:18:31 PM 39.2311 -84.4636 34° Northeast 191 220 8,400 -677 Descending Indianapolis Center
Sat 04:19:00 PM 39.2550 -84.4500 24° Northeast 190 219 8,100 -735 Descending Indianapolis Center
Sat 04:19:20 PM 39.2747 -84.4425 16° North 202 232 7,800 -689 Descending Indianapolis Center
Sat 04:20:01 PM 39.3081 -84.4253 22° Northeast 197 227 7,400 -700 Descending Indianapolis Center
Sat 04:20:20 PM 39.3253 -84.4142 27° Northeast 195 224 7,100 -787 Descending Indianapolis Center
Sat 04:21:02 PM 39.3581 -84.3981 21° North 196 226 6,600 -692 Descending Indianapolis Center
Sat 04:22:04 PM 39.4103 -84.3750 19° North 196 226 5,900 -750 Descending Indianapolis Center
Sat 04:22:22 PM 39.4256 -84.3656 26° Northeast 192 221 5,600 -787 Descending Indianapolis Center
Sat 04:23:05 PM 39.4583 -84.3494 21° North 191 220 5,100 -590 Descending Indianapolis Center
Sat 04:23:23 PM 39.4756 -84.3425 17° North 187 215 5,000 -97 Descending Indianapolis Center
Sat 04:24:07 PM 39.5061 -84.3275 21° North 185 213 5,000 -100 Level Indianapolis Center
Sat 04:24:23 PM 39.5097 -84.3119 73° East 158 182 4,900 -98 Descending Indianapolis Center
Sat 04:25:08 PM 39.5275 -84.2825 52° Northeast 158 182 4,900  Level Indianapolis Center
Sat 04:25:24 PM 39.5364 -84.2667 54° Northeast 142 163 4,900 -98 Level Indianapolis Center
Sat 04:26:09 PM 39.5514 -84.2392 55° Northeast 148 170 4,800 -393 Descending Indianapolis Center
Sat 04:26:25 PM 39.5606 -84.2239 52° Northeast 144 166 4,500 -774 Descending Indianapolis Center
Sat 04:27:11 PM 39.5778 -84.1933 54° Northeast 151 174 4,000 -885 Descending Indianapolis Center
Sat 04:27:26 PM 39.5878 -84.1733 57° Northeast 174 200 3,600 -787 Descending Indianapolis Center
Sat 04:28:12 PM 39.6064 -84.1422 52° Northeast 163 188 3,200 -590 Descending Indianapolis Center
Sat 04:28:27 PM 39.6167 -84.1228 56° Northeast 174 200 3,000 -484 Descending Indianapolis Center
Sat 04:29:14 PM 39.6364 -84.0842 56° Northeast 169 194 2,700 -383 Descending Indianapolis Center

Login

Don't have an account? Register now (free) for customized features, flight alerts, and more!